createdAt,value
2018-09-24T00:01:00.308Z,1.98
2018-09-24T00:03:28.555Z,1.90
2018-09-24T00:05:56.828Z,1.82
2018-09-24T00:08:25.223Z,2.33
2018-09-24T00:10:53.478Z,2.08
2018-09-24T00:13:21.743Z,2.40
2018-09-24T00:15:49.982Z,1.82
2018-09-24T00:18:18.191Z,1.98
2018-09-24T00:20:46.444Z,2.20
2018-09-24T00:23:14.686Z,2.25
2018-09-24T00:25:42.943Z,2.20
2018-09-24T00:28:11.183Z,1.85
2018-09-24T00:30:40.482Z,2.10
2018-09-24T00:33:08.724Z,1.98
2018-09-24T00:35:37.242Z,1.87
2018-09-24T00:38:05.495Z,1.98
2018-09-24T00:40:33.753Z,1.80
2018-09-24T00:43:02.033Z,2.02
2018-09-24T00:45:30.265Z,1.70
2018-09-24T00:47:58.573Z,1.60
2018-09-24T00:50:26.839Z,1.90
2018-09-24T00:52:55.147Z,1.77
2018-09-24T00:55:23.387Z,1.70
2018-09-24T00:57:51.691Z,1.57
2018-09-24T01:00:19.851Z,1.60
2018-09-24T01:02:48.115Z,1.77
2018-09-24T01:05:16.417Z,1.57
2018-09-24T01:07:44.701Z,1.60
2018-09-24T01:10:13.103Z,1.70
2018-09-24T01:12:41.306Z,1.90
2018-09-24T01:15:10.009Z,1.50
2018-09-24T01:17:45.762Z,1.45
2018-09-24T01:20:14.121Z,1.52
2018-09-24T01:22:42.349Z,1.37
2018-09-24T01:25:10.668Z,1.72
2018-09-24T01:27:38.896Z,1.67
2018-09-24T01:30:07.156Z,1.42
2018-09-24T01:32:35.393Z,1.55
2018-09-24T01:35:03.715Z,1.72
2018-09-24T01:37:31.982Z,1.52
2018-09-24T01:40:00.271Z,1.60
2018-09-24T01:42:28.709Z,1.15
2018-09-24T01:44:56.988Z,1.50
2018-09-24T01:47:25.241Z,1.50
2018-09-24T01:49:53.486Z,1.40
2018-09-24T01:52:21.772Z,1.40
2018-09-24T01:54:49.993Z,1.30
2018-09-24T01:57:19.196Z,1.40
2018-09-24T01:59:53.839Z,1.50
2018-09-24T02:02:22.123Z,1.32
2018-09-24T02:04:50.751Z,1.20
2018-09-24T02:07:19.188Z,1.40
2018-09-24T02:09:47.858Z,1.52
2018-09-24T02:12:16.082Z,1.15
2018-09-24T02:14:44.453Z,1.50
2018-09-24T02:17:17.928Z,1.45
2018-09-24T02:19:47.021Z,1.22
2018-09-24T02:22:16.079Z,1.37
2018-09-24T02:24:44.321Z,1.37
2018-09-24T02:27:12.573Z,1.25
2018-09-24T02:29:40.803Z,1.45
2018-09-24T02:32:09.037Z,1.15
2018-09-24T02:34:37.403Z,1.05
2018-09-24T02:37:05.981Z,1.15
2018-09-24T02:39:34.209Z,1.17
2018-09-24T02:42:02.439Z,1.32
2018-09-24T02:44:30.773Z,1.30
2018-09-24T02:46:59.056Z,1.10
2018-09-24T02:49:27.313Z,1.50
2018-09-24T02:51:57.755Z,1.20
2018-09-24T02:54:25.988Z,1.32
2018-09-24T02:56:54.167Z,1.20
2018-09-24T02:59:22.487Z,1.17
2018-09-24T03:01:50.675Z,1.40
2018-09-24T03:04:18.972Z,1.10
2018-09-24T03:06:47.277Z,1.12
2018-09-24T03:09:16.780Z,1.30
2018-09-24T03:11:45.370Z,1.27
2018-09-24T03:14:13.637Z,1.20
2018-09-24T03:16:41.827Z,1.17
2018-09-24T03:19:10.189Z,1.00
2018-09-24T03:21:38.555Z,1.40
2018-09-24T03:24:06.859Z,1.00
2018-09-24T03:26:42.010Z,1.05
2018-09-24T03:29:16.626Z,1.05
2018-09-24T03:31:44.884Z,1.15
2018-09-24T03:34:14.419Z,1.00
2018-09-24T03:36:42.618Z,1.10
2018-09-24T03:39:10.859Z,1.32
2018-09-24T03:41:39.155Z,1.20
2018-09-24T03:44:07.588Z,1.45
2018-09-24T03:46:35.829Z,1.47
2018-09-24T03:49:04.163Z,1.10
2018-09-24T03:51:32.411Z,1.10
2018-09-24T03:54:00.635Z,1.30
2018-09-24T03:56:29.055Z,1.40
2018-09-24T03:58:57.449Z,1.10
2018-09-24T04:01:25.580Z,0.98
2018-09-24T04:07:17.517Z,1.22
2018-09-24T04:09:51.057Z,1.17
2018-09-24T04:12:24.802Z,1.00
2018-09-24T04:14:58.321Z,0.98
2018-09-24T04:17:31.884Z,1.35
2018-09-24T04:20:05.667Z,1.10
2018-09-24T04:22:39.140Z,1.20
2018-09-24T04:25:12.688Z,1.22
2018-09-24T04:27:46.264Z,1.20
2018-09-24T04:30:19.671Z,0.95
2018-09-24T04:32:53.305Z,1.10
2018-09-24T04:35:26.922Z,1.27
2018-09-24T04:38:00.448Z,1.10
2018-09-24T04:40:33.943Z,1.50
2018-09-24T04:43:07.455Z,1.20
2018-09-24T04:45:41.128Z,1.32
2018-09-24T04:48:14.873Z,1.60
2018-09-24T04:50:48.405Z,1.32
2018-09-24T04:53:21.843Z,1.40
2018-09-24T04:55:55.464Z,1.07
2018-09-24T04:58:29.048Z,1.50
2018-09-24T05:01:02.568Z,1.40
2018-09-24T05:03:36.165Z,1.67
2018-09-24T05:06:09.683Z,1.27
2018-09-24T05:08:43.343Z,1.30
2018-09-24T05:11:16.931Z,1.10
2018-09-24T05:13:50.543Z,1.20
2018-09-24T05:16:24.198Z,1.40
2018-09-24T05:18:57.713Z,1.40
2018-09-24T05:21:31.453Z,1.17
2018-09-24T05:24:05.142Z,1.35
2018-09-24T05:26:38.554Z,1.30
2018-09-24T05:29:12.057Z,1.40
2018-09-24T05:31:45.504Z,1.42
2018-09-24T05:34:19.242Z,1.20
2018-09-24T05:36:52.870Z,1.55
2018-09-24T05:39:26.523Z,1.50
2018-09-24T05:42:00.263Z,1.20
2018-09-24T05:44:33.959Z,1.45
2018-09-24T05:47:07.432Z,1.37
2018-09-24T05:49:41.015Z,1.60
2018-09-24T05:52:14.647Z,1.47
2018-09-24T05:54:48.175Z,1.62
2018-09-24T05:57:21.703Z,1.50
2018-09-24T05:59:55.487Z,2.00
2018-09-24T06:02:29.117Z,1.50
2018-09-24T06:05:02.793Z,1.52
2018-09-24T06:07:36.433Z,1.30
2018-09-24T06:10:10.098Z,1.75
2018-09-24T06:12:43.634Z,2.02
2018-09-24T06:15:17.218Z,1.67
2018-09-24T06:17:50.828Z,1.72
2018-09-24T06:20:24.417Z,1.95
2018-09-24T06:22:57.948Z,1.90
2018-09-24T06:25:31.501Z,2.17
2018-09-24T06:28:05.037Z,1.90
2018-09-24T06:30:38.575Z,1.85
2018-09-24T06:33:12.142Z,1.90
2018-09-24T06:35:45.509Z,1.50
2018-09-24T06:38:19.129Z,1.60
2018-09-24T06:40:52.628Z,1.60
2018-09-24T06:43:26.152Z,1.90
2018-09-24T06:45:59.712Z,1.80
2018-09-24T06:48:33.341Z,2.35
2018-09-24T06:51:06.918Z,1.80
2018-09-24T06:53:40.553Z,2.12
2018-09-24T06:56:14.049Z,1.85
2018-09-24T06:58:47.457Z,2.10
2018-09-24T07:01:20.848Z,1.60
2018-09-24T07:03:54.511Z,1.75
2018-09-24T07:06:27.967Z,1.87
2018-09-24T07:09:01.514Z,1.55
2018-09-24T07:11:35.011Z,1.50
2018-09-24T07:14:08.767Z,1.27
2018-09-24T07:16:42.269Z,1.60
2018-09-24T07:19:15.829Z,1.40
2018-09-24T07:21:49.717Z,1.40
2018-09-24T07:24:23.247Z,1.62
2018-09-24T07:26:56.779Z,1.60
2018-09-24T07:29:30.359Z,1.50
2018-09-24T07:32:03.956Z,1.72
2018-09-24T07:34:37.471Z,1.75
2018-09-24T07:37:11.045Z,1.80
2018-09-24T07:39:44.644Z,1.80
2018-09-24T07:42:18.211Z,1.80
2018-09-24T07:44:51.795Z,1.32
2018-09-24T07:47:25.288Z,1.42
2018-09-24T07:49:58.746Z,1.50
2018-09-24T07:52:32.339Z,1.70
2018-09-24T07:55:05.968Z,1.52
2018-09-24T07:57:39.589Z,1.65
2018-09-24T08:00:13.299Z,1.55
2018-09-24T08:02:46.849Z,1.65
2018-09-24T08:05:20.303Z,2.10
2018-09-24T08:07:53.794Z,1.87
2018-09-24T08:10:27.477Z,1.75
2018-09-24T08:13:01.156Z,1.87
2018-09-24T08:15:34.583Z,1.40
2018-09-24T08:18:08.156Z,1.82
2018-09-24T08:20:41.601Z,1.62
2018-09-24T08:23:15.175Z,1.90
2018-09-24T08:25:48.681Z,1.87
2018-09-24T08:28:22.351Z,1.67
2018-09-24T08:30:55.892Z,1.50
2018-09-24T08:33:29.376Z,1.65
2018-09-24T08:36:03.029Z,1.82
2018-09-24T08:38:36.499Z,1.90
2018-09-24T08:41:10.071Z,1.70
2018-09-24T08:43:43.615Z,1.85
2018-09-24T08:46:17.105Z,1.60
2018-09-24T08:48:50.817Z,1.87
2018-09-24T08:51:24.307Z,1.90
2018-09-24T08:53:58.155Z,1.80
2018-09-24T08:56:31.609Z,2.20
2018-09-24T08:59:05.155Z,2.10
2018-09-24T09:01:38.723Z,1.85
2018-09-24T09:04:12.322Z,1.40
2018-09-24T09:06:45.796Z,1.70
2018-09-24T09:09:19.500Z,1.92
2018-09-24T09:11:53.221Z,2.37
2018-09-24T09:14:26.749Z,1.72
2018-09-24T09:17:00.250Z,1.82
2018-09-24T09:19:33.881Z,1.90
2018-09-24T09:22:07.519Z,1.55
2018-09-24T09:24:41.051Z,1.60
2018-09-24T09:27:14.654Z,2.12
2018-09-24T09:29:48.189Z,1.98
2018-09-24T09:32:21.659Z,1.80
2018-09-24T09:34:55.222Z,2.00
2018-09-24T09:37:28.867Z,2.15
2018-09-24T09:40:02.446Z,2.65
2018-09-24T09:42:36.185Z,1.98
2018-09-24T09:45:09.844Z,2.10
2018-09-24T09:47:43.307Z,2.52
2018-09-24T09:50:16.823Z,2.50
2018-09-24T09:52:50.377Z,2.22
2018-09-24T09:55:23.846Z,2.00
2018-09-24T09:57:57.457Z,2.22
2018-09-24T10:00:31.093Z,2.30
2018-09-24T10:03:04.687Z,2.10
2018-09-24T10:05:38.089Z,2.22
2018-09-24T10:08:11.767Z,2.22
2018-09-24T10:10:45.162Z,1.80
2018-09-24T10:13:18.789Z,1.95
2018-09-24T10:15:52.309Z,2.00
2018-09-24T10:18:25.802Z,3.00
2018-09-24T10:20:59.617Z,2.98
2018-09-24T10:23:33.240Z,3.83
2018-09-24T10:26:06.883Z,3.08
2018-09-24T10:28:40.316Z,2.80
2018-09-24T10:31:13.955Z,2.30
2018-09-24T10:33:47.684Z,1.90
2018-09-24T10:36:20.944Z,2.45
2018-09-24T10:38:54.480Z,2.98
2018-09-24T10:41:28.140Z,3.02
2018-09-24T10:44:01.634Z,3.00
2018-09-24T10:46:35.265Z,3.12
2018-09-24T10:49:08.671Z,2.55
2018-09-24T10:51:42.250Z,2.52
2018-09-24T10:54:15.930Z,2.80
2018-09-24T10:56:49.449Z,2.37
2018-09-24T10:59:23.054Z,2.47
2018-09-24T11:01:56.569Z,2.80
2018-09-24T11:04:30.277Z,2.98
2018-09-24T11:07:03.755Z,2.60
2018-09-24T11:09:37.278Z,2.60
2018-09-24T11:12:10.903Z,2.35
2018-09-24T11:14:44.578Z,2.80
2018-09-24T11:17:18.320Z,2.30
2018-09-24T11:19:51.772Z,2.45
2018-09-24T11:22:25.331Z,2.50
2018-09-24T11:24:58.955Z,2.40
2018-09-24T11:27:32.655Z,1.90
2018-09-24T11:30:06.207Z,2.05
2018-09-24T11:32:39.825Z,2.00
2018-09-24T11:35:13.268Z,2.08
2018-09-24T11:37:46.991Z,2.35
2018-09-24T11:40:20.589Z,2.20
2018-09-24T11:42:54.411Z,2.33
2018-09-24T11:45:27.999Z,1.85
2018-09-24T11:48:01.570Z,1.87
2018-09-24T11:50:35.047Z,1.80
2018-09-24T11:53:08.718Z,1.77
2018-09-24T11:55:42.589Z,1.60
2018-09-24T11:58:16.167Z,1.70
2018-09-24T12:00:49.706Z,1.65
2018-09-24T12:03:23.252Z,1.72
2018-09-24T12:05:56.814Z,2.00
2018-09-24T12:08:30.295Z,1.62
2018-09-24T12:11:03.973Z,1.82
2018-09-24T12:13:37.591Z,1.80
2018-09-24T12:16:11.215Z,1.72
2018-09-24T12:18:44.835Z,1.72
2018-09-24T12:21:18.693Z,1.62
2018-09-24T12:23:52.342Z,1.75
2018-09-24T12:26:25.977Z,1.72
2018-09-24T12:28:59.650Z,1.52
2018-09-24T12:31:33.045Z,1.72
2018-09-24T12:34:06.483Z,1.30
2018-09-24T12:36:39.992Z,1.67
2018-09-24T12:39:13.526Z,1.80
2018-09-24T12:41:46.996Z,1.70
2018-09-24T12:44:20.765Z,1.62
2018-09-24T12:46:54.438Z,1.37
2018-09-24T12:49:27.903Z,1.50
2018-09-24T12:52:01.633Z,1.37
2018-09-24T12:54:35.043Z,1.40
2018-09-24T12:57:08.417Z,1.60
2018-09-24T12:59:42.056Z,1.50
2018-09-24T13:02:15.839Z,1.42
2018-09-24T13:04:49.250Z,1.47
2018-09-24T13:07:22.920Z,1.35
2018-09-24T13:09:56.662Z,1.20
2018-09-24T13:12:30.363Z,1.32
2018-09-24T13:15:04.075Z,1.60
2018-09-24T13:17:37.633Z,1.20
2018-09-24T13:20:11.123Z,1.10
2018-09-24T13:22:44.735Z,1.02
2018-09-24T13:25:18.268Z,1.40
2018-09-24T13:27:51.817Z,1.30
2018-09-24T13:30:25.457Z,1.57
2018-09-24T13:32:59.017Z,1.17
2018-09-24T13:35:32.712Z,1.22
2018-09-24T13:38:06.433Z,1.30
2018-09-24T13:40:39.973Z,1.17
2018-09-24T13:43:13.637Z,1.00
2018-09-24T13:45:47.135Z,1.22
2018-09-24T13:48:20.663Z,1.30
2018-09-24T13:50:54.207Z,1.27
2018-09-24T13:53:27.810Z,1.02
2018-09-24T13:56:02.502Z,1.15
2018-09-24T13:58:35.987Z,1.42
2018-09-24T14:01:09.483Z,1.32
2018-09-24T14:03:43.103Z,1.37
2018-09-24T14:06:16.459Z,1.20
2018-09-24T14:08:50.258Z,1.40
2018-09-24T14:11:24.051Z,1.20
2018-09-24T14:13:57.503Z,1.30
2018-09-24T14:16:30.964Z,1.15
2018-09-24T14:19:04.583Z,0.80
2018-09-24T14:21:38.275Z,1.37
2018-09-24T14:24:12.052Z,1.20
2018-09-24T14:26:45.646Z,0.90
2018-09-24T14:29:19.139Z,1.42
2018-09-24T14:31:52.741Z,1.30
2018-09-24T14:34:26.783Z,1.35
2018-09-24T14:37:00.343Z,1.57
2018-09-24T14:39:33.919Z,1.27
2018-09-24T14:42:07.426Z,1.45
2018-09-24T14:44:41.013Z,1.40
2018-09-24T14:47:14.570Z,1.40
2018-09-24T14:49:49.915Z,1.47
2018-09-24T14:52:23.743Z,1.20
2018-09-24T14:54:57.438Z,1.02
2018-09-24T14:57:30.943Z,1.30
2018-09-24T15:00:04.592Z,1.00
2018-09-24T15:02:38.255Z,1.45
2018-09-24T15:05:11.829Z,1.25
2018-09-24T15:07:45.383Z,1.12
2018-09-24T15:10:19.123Z,1.15
2018-09-24T15:12:52.848Z,0.90
2018-09-24T15:15:26.433Z,1.12
2018-09-24T15:18:00.031Z,1.20
2018-09-24T15:20:33.570Z,0.98
2018-09-24T15:23:07.174Z,1.37
2018-09-24T15:25:40.758Z,1.07
2018-09-24T15:28:14.463Z,0.93
2018-09-24T15:30:48.243Z,1.02
2018-09-24T15:33:21.863Z,1.00
2018-09-24T15:35:55.508Z,1.30
2018-09-24T15:38:29.293Z,1.00
2018-09-24T15:41:02.784Z,1.30
2018-09-24T15:43:36.171Z,1.35
2018-09-24T15:46:09.779Z,1.10
2018-09-24T15:48:43.334Z,0.95
2018-09-24T15:51:16.847Z,1.10
2018-09-24T15:53:50.447Z,1.10
2018-09-24T15:56:24.237Z,1.00
2018-09-24T15:58:57.903Z,1.35
2018-09-24T16:01:31.431Z,1.00
2018-09-24T16:04:05.003Z,1.05
2018-09-24T16:06:38.521Z,1.32
2018-09-24T16:09:13.644Z,1.12
2018-09-24T16:11:47.138Z,1.20
2018-09-24T16:14:20.611Z,0.78
2018-09-24T16:16:54.240Z,1.00
2018-09-24T16:19:27.905Z,1.20
2018-09-24T16:22:01.642Z,1.05
2018-09-24T16:24:35.388Z,0.90
2018-09-24T16:27:09.081Z,1.02
2018-09-24T16:29:42.623Z,1.35
2018-09-24T16:32:16.166Z,1.02
2018-09-24T16:34:49.623Z,1.10
2018-09-24T16:37:23.195Z,1.05
2018-09-24T16:39:56.786Z,0.95
2018-09-24T16:42:30.352Z,1.00
2018-09-24T16:45:03.809Z,1.02
2018-09-24T16:47:37.417Z,1.17
2018-09-24T16:50:11.343Z,1.10
2018-09-24T16:52:44.843Z,1.50
2018-09-24T16:55:18.437Z,1.27
2018-09-24T16:57:52.016Z,1.30
2018-09-24T17:00:25.467Z,0.75
2018-09-24T17:02:58.968Z,1.05
2018-09-24T17:05:32.501Z,1.10
2018-09-24T17:08:06.090Z,1.20
2018-09-24T17:10:39.570Z,1.10
2018-09-24T17:13:13.203Z,1.15
2018-09-24T17:15:46.701Z,1.20
2018-09-24T17:18:20.949Z,1.00
2018-09-24T17:20:54.712Z,1.37
2018-09-24T17:23:28.209Z,1.17
2018-09-24T17:26:01.898Z,1.02
2018-09-24T17:28:35.305Z,1.10
2018-09-24T17:31:08.725Z,1.22
2018-09-24T17:33:42.453Z,1.25
2018-09-24T17:36:15.894Z,1.40
2018-09-24T17:38:49.313Z,1.45
2018-09-24T17:41:22.697Z,1.50
2018-09-24T17:43:56.296Z,1.47
2018-09-24T17:46:29.953Z,1.10
2018-09-24T17:49:03.309Z,1.45
2018-09-24T17:51:36.882Z,1.92
2018-09-24T17:54:10.584Z,1.50
2018-09-24T17:56:44.144Z,1.70
2018-09-24T17:59:17.918Z,1.50
2018-09-24T18:01:51.573Z,1.50
2018-09-24T18:04:26.012Z,1.20
2018-09-24T18:06:59.562Z,1.30
2018-09-24T18:09:33.113Z,1.40
2018-09-24T18:12:06.953Z,1.35
2018-09-24T18:14:40.768Z,1.60
2018-09-24T18:17:14.455Z,1.52
2018-09-24T18:19:48.195Z,1.57
2018-09-24T18:22:21.821Z,13.90
2018-09-24T18:24:55.211Z,17.23
2018-09-24T18:27:28.596Z,14.05
2018-09-24T18:30:02.186Z,17.62
2018-09-24T18:32:35.743Z,18.55
2018-09-24T18:35:09.475Z,16.57
2018-09-24T18:37:43.295Z,14.15
2018-09-24T18:40:17.401Z,16.52
2018-09-24T18:42:51.840Z,14.85
2018-09-24T18:45:25.457Z,12.63
2018-09-24T18:47:59.035Z,13.90
2018-09-24T18:50:32.639Z,12.85
2018-09-24T19:57:53.855Z,6.22
2018-09-24T20:00:27.540Z,5.47
2018-09-24T20:03:01.221Z,5.15
2018-09-24T20:05:34.693Z,5.30
2018-09-24T20:08:08.532Z,5.55
2018-09-24T20:10:42.106Z,5.75
2018-09-24T20:16:06.351Z,4.72
2018-09-24T20:18:39.944Z,5.00
2018-09-24T20:21:13.485Z,4.42
2018-09-24T20:23:47.031Z,4.90
2018-09-24T20:26:20.569Z,5.03
2018-09-24T20:28:54.125Z,4.80
2018-09-24T20:31:27.783Z,4.62
2018-09-24T20:34:01.349Z,4.12
2018-09-24T20:36:34.853Z,4.17
2018-09-24T20:39:08.490Z,4.28
2018-09-24T20:41:42.179Z,3.45
2018-09-24T20:47:06.487Z,3.90
2018-09-24T20:49:40.125Z,3.80
2018-09-24T20:52:13.639Z,3.60
2018-09-24T20:57:37.617Z,3.40
2018-09-24T21:05:55.015Z,3.37
2018-09-24T21:08:28.602Z,3.47
2018-09-24T21:11:04.625Z,3.10
2018-09-24T21:13:38.377Z,2.98
2018-09-24T21:16:12.385Z,2.98
2018-09-24T21:18:46.020Z,3.20
2018-09-24T21:21:19.464Z,2.95
2018-09-24T21:23:53.129Z,2.65
2018-09-24T21:26:26.719Z,2.77
2018-09-24T21:29:00.197Z,3.15
2018-09-24T21:31:33.804Z,3.08
2018-09-24T21:34:07.411Z,2.87
2018-09-24T21:36:41.038Z,3.15
2018-09-24T21:39:14.695Z,2.55
2018-09-24T21:41:48.125Z,2.42
2018-09-24T21:44:21.787Z,2.92
2018-09-24T21:46:55.346Z,2.70
2018-09-24T21:49:28.797Z,2.75
2018-09-24T21:57:45.843Z,2.98
2018-09-24T22:00:19.635Z,2.33
2018-09-24T22:02:53.064Z,2.95
2018-09-24T22:08:16.900Z,2.77
2018-09-24T22:13:41.204Z,2.30
2018-09-24T22:16:14.702Z,2.45
2018-09-24T22:18:48.411Z,2.15
2018-09-24T22:21:21.976Z,2.33
2018-09-24T22:23:55.650Z,2.20
2018-09-24T22:26:29.032Z,2.58
2018-09-24T22:29:02.622Z,2.25
2018-09-24T22:34:26.533Z,1.95
2018-09-24T22:37:00.045Z,2.35
2018-09-24T22:39:33.450Z,2.70
2018-09-24T22:45:05.254Z,2.30
2018-09-24T22:47:38.752Z,1.80
2018-09-24T22:53:03.651Z,1.90
2018-09-24T22:55:37.358Z,2.08
2018-09-24T23:01:01.139Z,2.00
2018-09-24T23:03:35.244Z,1.92
2018-09-24T23:06:08.824Z,1.90
2018-09-24T23:08:42.352Z,1.80
2018-09-24T23:14:06.927Z,1.82
2018-09-24T23:16:40.677Z,1.82
2018-09-24T23:19:14.104Z,1.62
2018-09-24T23:27:28.888Z,1.77
2018-09-24T23:32:53.547Z,1.73
2018-09-24T23:35:27.152Z,1.77
2018-09-24T23:38:00.880Z,1.50
2018-09-24T23:40:34.572Z,1.87
2018-09-24T23:43:08.334Z,1.60
2018-09-24T23:48:33.843Z,1.72
2018-09-24T23:51:07.332Z,1.87
2018-09-24T23:53:40.883Z,1.50
2018-09-24T23:59:05.004Z,1.67
